createdAt,value
2017-06-21T00:01:24.557Z,22.10
2017-06-21T00:03:51.603Z,22.00
2017-06-21T00:06:23.548Z,21.80
2017-06-21T00:08:51.061Z,21.80
2017-06-21T00:11:18.518Z,21.80
2017-06-21T00:13:47.936Z,21.80
2017-06-21T00:16:15.320Z,21.80
2017-06-21T00:18:43.736Z,21.80
2017-06-21T00:21:13.027Z,21.70
2017-06-21T00:23:40.403Z,21.70
2017-06-21T00:26:06.657Z,21.70
2017-06-21T00:28:34.845Z,21.60
2017-06-21T00:31:04.312Z,21.60
2017-06-21T00:33:32.232Z,21.50
2017-06-21T00:36:00.702Z,21.40
2017-06-21T00:38:29.295Z,21.40
2017-06-21T00:40:56.562Z,21.30
2017-06-21T00:43:24.961Z,21.30
2017-06-21T00:45:53.005Z,21.20
2017-06-21T00:48:19.257Z,21.20
2017-06-21T00:50:46.616Z,21.20
2017-06-21T00:53:14.812Z,21.20
2017-06-21T02:44:43.700Z,19.90
2017-06-21T02:47:11.615Z,19.90
2017-06-21T02:49:58.127Z,19.90
2017-06-21T02:52:30.898Z,19.90
2017-06-21T02:54:58.233Z,19.90
2017-06-21T02:57:26.146Z,19.80
2017-06-21T02:59:52.440Z,19.90
2017-06-21T03:02:21.843Z,19.90
2017-06-21T03:04:53.941Z,19.90
2017-06-21T03:07:20.697Z,20.00
2017-06-21T03:09:48.892Z,20.00
2017-06-21T03:12:17.523Z,20.00
2017-06-21T03:14:49.188Z,20.10
2017-06-21T03:17:16.667Z,20.10
2017-06-21T03:19:43.283Z,20.10
2017-06-21T03:22:13.449Z,20.10
2017-06-21T03:24:42.225Z,20.10
2017-06-21T03:27:09.582Z,20.10
2017-06-21T03:29:36.973Z,20.10
2017-06-21T03:32:03.410Z,20.10
2017-06-21T03:34:31.220Z,20.20
2017-06-21T03:36:59.037Z,20.20
2017-06-21T03:39:31.203Z,20.20
2017-06-21T03:42:01.496Z,20.20
2017-06-21T03:44:30.933Z,20.10
2017-06-21T03:46:58.948Z,20.20
2017-06-21T03:49:28.694Z,20.10
2017-06-21T03:51:54.963Z,20.10
2017-06-21T03:54:23.080Z,20.10
2017-06-21T03:56:51.625Z,20.10
2017-06-21T03:59:18.887Z,20.20
2017-06-21T04:01:47.126Z,20.10
2017-06-21T04:04:16.850Z,20.10
2017-06-21T04:06:45.668Z,20.20
2017-06-21T04:09:11.960Z,20.20
2017-06-21T04:11:38.214Z,20.20
2017-06-21T04:14:05.251Z,20.20
2017-06-21T04:16:33.760Z,20.10
2017-06-21T04:19:00.865Z,20.10
2017-06-21T04:21:27.115Z,20.10
2017-06-21T04:23:59.888Z,20.10
2017-06-21T04:26:29.809Z,20.10
2017-06-21T04:28:58.006Z,20.00
2017-06-21T04:31:26.688Z,20.00
2017-06-21T04:33:52.937Z,20.00
2017-06-21T04:36:20.856Z,20.00
2017-06-21T04:38:49.036Z,20.00
2017-06-21T04:41:16.172Z,20.10
2017-06-21T04:43:42.455Z,20.10
2017-06-21T04:46:09.915Z,20.10
2017-06-21T04:48:38.681Z,20.10
2017-06-21T04:51:04.963Z,20.10
2017-06-21T04:53:33.084Z,20.20
2017-06-21T04:56:03.151Z,20.30
2017-06-21T04:58:31.247Z,20.30
2017-06-21T05:00:59.669Z,20.40
2017-06-21T05:03:27.610Z,20.40
2017-06-21T05:05:55.671Z,20.50
2017-06-21T05:08:22.734Z,20.50
2017-06-21T05:10:51.292Z,20.60
2017-06-21T05:13:19.032Z,20.70
2017-06-21T05:15:46.832Z,20.70
2017-06-21T05:18:16.868Z,20.70
2017-06-21T05:20:44.042Z,20.80
2017-06-21T05:23:11.805Z,20.90
2017-06-21T05:25:39.938Z,20.90
2017-06-21T05:28:08.281Z,21.00
2017-06-21T05:30:36.440Z,20.90
2017-06-21T05:33:05.524Z,20.90
2017-06-21T05:35:31.783Z,21.00
2017-06-21T05:37:59.921Z,21.10
2017-06-21T05:40:27.952Z,21.10
2017-06-21T05:42:56.710Z,21.20
2017-06-21T05:45:23.895Z,21.20
2017-06-21T05:47:53.910Z,21.30
2017-06-21T05:50:22.105Z,21.40
2017-06-21T05:52:53.810Z,21.40
2017-06-21T05:55:21.740Z,21.50
2017-06-21T05:57:49.945Z,21.60
2017-06-21T06:00:16.467Z,21.60
2017-06-21T06:02:42.721Z,21.70
2017-06-21T06:05:10.542Z,21.80
2017-06-21T06:07:37.775Z,21.80
2017-06-21T06:10:06.456Z,21.80
2017-06-21T06:12:34.140Z,22.00
2017-06-21T06:15:01.874Z,22.10
2017-06-21T06:17:28.214Z,22.20
2017-06-21T06:19:59.362Z,22.30
2017-06-21T06:22:28.368Z,22.40
2017-06-21T06:24:56.904Z,22.50
2017-06-21T06:27:25.260Z,22.50
2017-06-21T06:29:52.310Z,22.60
2017-06-21T06:32:25.220Z,22.70
2017-06-21T06:34:52.259Z,22.80
2017-06-21T06:37:21.184Z,22.90
2017-06-21T06:39:47.744Z,22.80
2017-06-21T06:42:16.323Z,22.90
2017-06-21T06:44:43.529Z,23.00
2017-06-21T06:47:13.014Z,23.00
2017-06-21T06:49:42.080Z,23.10
2017-06-21T06:52:10.609Z,23.20
2017-06-21T06:54:37.832Z,23.20
2017-06-21T06:57:04.990Z,23.30
2017-06-21T06:59:32.963Z,23.50
2017-06-21T07:02:00.939Z,23.60
2017-06-21T07:04:32.480Z,23.70
2017-06-21T07:07:02.421Z,23.80
2017-06-21T07:09:36.119Z,23.80
2017-06-21T07:14:35.004Z,23.90
2017-06-21T07:17:01.845Z,24.00
2017-06-21T07:19:29.964Z,24.00
2017-06-21T07:21:57.884Z,23.90
2017-06-21T07:24:25.815Z,24.00
2017-06-21T07:26:52.751Z,24.10
2017-06-21T07:29:19.769Z,24.30
2017-06-21T07:31:48.710Z,24.40
2017-06-21T07:34:15.493Z,24.30
2017-06-21T07:36:44.436Z,24.40
2017-06-21T07:39:11.982Z,24.50
2017-06-21T07:41:39.053Z,24.60
2017-06-21T07:44:09.931Z,24.90
2017-06-21T07:46:37.587Z,25.00
2017-06-21T07:49:06.067Z,25.10
2017-06-21T07:51:32.883Z,25.40
2017-06-21T07:53:59.136Z,25.50
2017-06-21T07:56:25.899Z,25.60
2017-06-21T07:58:54.009Z,25.80
2017-06-21T08:01:22.008Z,26.00
2017-06-21T08:03:48.948Z,26.10
2017-06-21T08:06:16.516Z,26.10
2017-06-21T08:08:44.696Z,26.20
2017-06-21T08:11:13.556Z,26.10
2017-06-21T08:13:41.948Z,26.30
2017-06-21T08:16:11.680Z,26.20
2017-06-21T08:18:40.364Z,26.20
2017-06-21T08:21:09.348Z,26.30
2017-06-21T08:23:36.403Z,26.40
2017-06-21T08:26:03.229Z,26.50
2017-06-21T08:28:30.040Z,26.50
2017-06-21T08:33:32.711Z,26.80
2017-06-21T08:35:59.904Z,26.80
2017-06-21T08:38:26.794Z,27.00
2017-06-21T08:40:55.188Z,27.00
2017-06-21T08:43:22.419Z,27.20
2017-06-21T08:45:49.904Z,27.30
2017-06-21T08:48:17.107Z,27.40
2017-06-21T08:50:43.436Z,27.30
2017-06-21T08:53:10.661Z,27.40
2017-06-21T08:55:36.884Z,27.40
2017-06-21T08:58:06.187Z,27.60
2017-06-21T09:00:34.148Z,27.70
2017-06-21T09:03:00.477Z,27.80
2017-06-21T09:05:26.775Z,28.00
2017-06-21T09:07:53.858Z,28.00
2017-06-21T09:12:53.529Z,28.20
2017-06-21T09:15:23.747Z,28.30
2017-06-21T09:17:53.381Z,28.50
2017-06-21T09:20:19.690Z,28.50
2017-06-21T09:22:48.348Z,28.30
2017-06-21T09:27:51.509Z,28.30
2017-06-21T09:30:18.558Z,28.50
2017-06-21T09:35:29.039Z,28.70
2017-06-21T09:37:59.436Z,29.00
2017-06-21T09:40:28.787Z,29.10
2017-06-21T09:42:57.581Z,29.20
2017-06-21T09:45:23.901Z,29.30
2017-06-21T09:47:52.031Z,29.30
2017-06-21T09:50:20.078Z,29.50
2017-06-21T09:52:48.185Z,29.70
2017-06-21T09:55:16.384Z,29.80
2017-06-21T09:57:46.390Z,29.90
2017-06-21T10:00:14.552Z,29.80
2017-06-21T10:02:45.775Z,29.90
2017-06-21T10:05:13.623Z,30.20
2017-06-21T10:07:43.183Z,30.40
2017-06-21T10:10:11.493Z,30.60
2017-06-21T10:12:38.849Z,30.80
2017-06-21T10:15:06.969Z,31.00
2017-06-21T10:17:37.693Z,31.20
2017-06-21T10:20:03.965Z,31.30
2017-06-21T10:22:31.047Z,31.30
2017-06-21T10:24:57.318Z,31.00
2017-06-21T10:27:25.401Z,30.40
2017-06-21T10:29:53.204Z,30.20
2017-06-21T10:32:20.702Z,30.00
2017-06-21T10:34:47.916Z,29.90
2017-06-21T10:37:15.704Z,29.70
2017-06-21T10:39:44.168Z,29.60
2017-06-21T10:42:12.349Z,29.50
2017-06-21T10:44:39.828Z,29.60
2017-06-21T10:47:08.975Z,29.50
2017-06-21T10:49:37.632Z,29.50
2017-06-21T10:52:06.536Z,29.60
2017-06-21T10:54:35.532Z,29.90
2017-06-21T10:57:02.665Z,30.00
2017-06-21T10:59:32.066Z,29.90
2017-06-21T11:02:00.052Z,29.70
2017-06-21T11:04:28.128Z,29.70
2017-06-21T11:06:54.370Z,29.70
2017-06-21T11:09:20.635Z,29.90
2017-06-21T11:11:47.095Z,30.40
2017-06-21T11:14:13.608Z,30.60
2017-06-21T11:16:39.890Z,30.40
2017-06-21T11:19:07.003Z,30.20
2017-06-21T11:21:34.107Z,30.20
2017-06-21T11:24:02.449Z,30.40
2017-06-21T11:26:29.593Z,30.80
2017-06-21T11:28:56.851Z,31.30
2017-06-21T11:31:27.707Z,31.90
2017-06-21T11:33:57.675Z,32.40
2017-06-21T11:36:25.456Z,32.80
2017-06-21T11:38:52.740Z,33.20
2017-06-21T11:41:19.913Z,33.30
2017-06-21T11:43:49.727Z,33.00
2017-06-21T11:46:18.156Z,32.70
2017-06-21T11:48:49.606Z,32.30
2017-06-21T11:51:18.719Z,32.10
2017-06-21T11:53:45.000Z,31.70
2017-06-21T11:56:12.851Z,31.60
2017-06-21T11:58:39.168Z,31.70
2017-06-21T12:01:05.788Z,31.80
2017-06-21T12:03:32.134Z,32.30
2017-06-21T12:05:58.407Z,32.50
2017-06-21T12:08:25.452Z,32.80
2017-06-21T12:11:29.186Z,33.20
2017-06-21T12:13:57.060Z,33.40
2017-06-21T12:16:23.560Z,33.30
2017-06-21T12:18:50.431Z,33.60
2017-06-21T12:21:17.718Z,33.90
2017-06-21T12:23:45.019Z,34.10
2017-06-21T12:26:11.557Z,34.20
2017-06-21T12:28:37.884Z,34.50
2017-06-21T12:31:04.157Z,35.00
2017-06-21T12:33:31.506Z,35.00
2017-06-21T12:36:01.044Z,35.40
2017-06-21T12:38:29.407Z,35.60
2017-06-21T12:40:55.680Z,36.00
2017-06-21T12:43:22.984Z,36.60
2017-06-21T12:45:56.947Z,37.00
2017-06-21T12:48:23.368Z,36.70
2017-06-21T12:50:49.621Z,36.10
2017-06-21T12:53:17.339Z,35.40
2017-06-21T12:55:46.141Z,34.60
2017-06-21T12:58:13.240Z,34.00
2017-06-21T13:00:42.180Z,33.40
2017-06-21T13:05:44.735Z,32.90
2017-06-21T13:08:15.369Z,33.70
2017-06-21T13:10:49.221Z,34.50
2017-06-21T13:13:18.030Z,34.50
2017-06-21T13:18:23.593Z,36.40
2017-06-21T13:21:00.285Z,37.80
2017-06-21T13:31:49.137Z,41.40
2017-06-21T13:34:18.702Z,41.60
2017-06-21T13:36:45.781Z,42.10
2017-06-21T13:39:12.982Z,42.80
2017-06-21T13:41:41.003Z,43.00
2017-06-21T13:44:12.042Z,43.50
2017-06-21T13:46:40.155Z,44.00
2017-06-21T13:49:09.588Z,44.20
2017-06-21T13:51:38.149Z,44.60
2017-06-21T13:54:05.388Z,44.50
2017-06-21T13:56:33.935Z,44.40
2017-06-21T13:59:01.226Z,45.10
2017-06-21T14:01:29.617Z,45.70
2017-06-21T14:03:57.592Z,45.80
2017-06-21T14:06:26.006Z,45.90
2017-06-21T14:08:53.252Z,46.20
2017-06-21T14:11:21.442Z,46.40
2017-06-21T14:13:47.713Z,46.80
2017-06-21T14:16:15.321Z,46.90
2017-06-21T14:18:43.260Z,47.10
2017-06-21T14:21:11.812Z,47.30
2017-06-21T14:23:39.505Z,47.20
2017-06-21T14:26:09.480Z,47.00
2017-06-21T14:28:37.571Z,47.30
2017-06-21T14:31:04.681Z,47.30
2017-06-21T14:33:31.865Z,47.00
2017-06-21T14:35:58.937Z,46.70
2017-06-21T14:38:26.995Z,46.50
2017-06-21T14:40:54.959Z,46.60
2017-06-21T14:43:24.967Z,46.50
2017-06-21T14:45:52.135Z,46.60
2017-06-21T14:48:19.199Z,46.70
2017-06-21T14:50:47.371Z,46.20
2017-06-21T14:53:14.763Z,45.60
2017-06-21T14:55:43.235Z,45.90
2017-06-21T14:58:33.780Z,45.20
2017-06-21T15:01:04.005Z,43.40
2017-06-21T15:03:36.563Z,42.70
2017-06-21T15:06:06.642Z,42.80
2017-06-21T15:08:35.383Z,42.80
2017-06-21T15:11:03.334Z,42.20
2017-06-21T15:13:31.731Z,41.40
2017-06-21T15:16:01.299Z,40.90
2017-06-21T15:18:28.468Z,40.10
2017-06-21T15:20:56.411Z,38.80
2017-06-21T15:23:26.661Z,38.20
2017-06-21T15:25:57.810Z,37.70
2017-06-21T15:28:25.441Z,37.80
2017-06-21T15:30:55.992Z,38.80
2017-06-21T15:33:25.864Z,39.40
2017-06-21T15:35:52.152Z,39.00
2017-06-21T15:38:22.759Z,38.40
2017-06-21T15:40:54.890Z,37.70
2017-06-21T15:43:23.848Z,36.60
2017-06-21T15:45:54.279Z,36.10
2017-06-21T15:48:23.067Z,35.60
2017-06-21T15:50:52.960Z,35.00
2017-06-21T15:53:23.475Z,34.40
2017-06-21T15:55:50.188Z,33.90
2017-06-21T15:58:32.709Z,33.50
2017-06-21T16:01:01.665Z,33.20
2017-06-21T16:03:31.020Z,33.10
2017-06-21T16:05:58.529Z,32.20
2017-06-21T16:08:26.817Z,31.00
2017-06-21T16:10:54.864Z,30.10
2017-06-21T16:13:23.211Z,29.40
2017-06-21T16:15:51.609Z,28.90
2017-06-21T16:18:20.808Z,28.60
2017-06-21T16:20:47.083Z,28.40
2017-06-21T16:23:15.437Z,28.20
2017-06-21T16:25:43.502Z,27.90
2017-06-21T16:28:12.073Z,27.30
2017-06-21T16:30:42.060Z,26.50
2017-06-21T16:33:13.898Z,26.00
2017-06-21T16:35:41.448Z,25.30
2017-06-21T16:38:09.324Z,23.80
2017-06-21T16:40:37.903Z,22.40
2017-06-21T16:43:06.585Z,21.90
2017-06-21T16:45:34.096Z,21.90
2017-06-21T16:48:02.797Z,22.50
2017-06-21T16:50:32.375Z,22.90
2017-06-21T16:53:00.597Z,23.20
2017-06-21T16:55:28.076Z,23.70
2017-06-21T16:57:57.223Z,24.20
2017-06-21T17:00:27.785Z,24.40
2017-06-21T17:02:54.369Z,24.50
2017-06-21T17:05:20.749Z,24.70
2017-06-21T17:07:47.050Z,25.00
2017-06-21T17:10:14.808Z,25.30
2017-06-21T17:12:42.743Z,25.70
2017-06-21T17:15:11.113Z,26.00
2017-06-21T17:17:37.468Z,26.30
2017-06-21T17:20:06.941Z,26.60
2017-06-21T17:22:35.109Z,26.60
2017-06-21T17:25:03.864Z,26.70
2017-06-21T17:27:30.142Z,26.70
2017-06-21T17:29:57.945Z,26.60
2017-06-21T17:32:35.762Z,26.50
2017-06-21T17:35:03.963Z,26.40
2017-06-21T17:37:32.119Z,26.30
2017-06-21T17:42:35.972Z,26.10
2017-06-21T17:45:04.258Z,26.00
2017-06-21T17:47:30.653Z,25.90
2017-06-21T17:49:58.510Z,25.90
2017-06-21T17:52:27.445Z,25.80
2017-06-21T17:54:55.410Z,25.80
2017-06-21T17:57:23.702Z,25.50
2017-06-21T17:59:53.412Z,25.50
2017-06-21T18:02:23.076Z,25.50
2017-06-21T18:04:53.635Z,25.40
2017-06-21T18:07:23.067Z,25.20
2017-06-21T18:09:51.729Z,25.20
2017-06-21T18:12:19.164Z,25.30
2017-06-21T18:14:48.514Z,25.50
2017-06-21T18:17:16.089Z,25.80
2017-06-21T18:19:44.031Z,26.30
2017-06-21T18:22:12.658Z,26.70
2017-06-21T18:24:40.622Z,27.00
2017-06-21T18:27:08.301Z,26.80
2017-06-21T18:29:37.178Z,26.50
2017-06-21T18:32:07.712Z,26.10
2017-06-21T18:34:35.763Z,25.80
2017-06-21T18:37:07.935Z,25.50
2017-06-21T18:39:37.103Z,25.20
2017-06-21T18:42:05.951Z,24.90
2017-06-21T18:44:35.162Z,24.80
2017-06-21T18:47:01.433Z,24.70
2017-06-21T18:49:31.310Z,24.60
2017-06-21T18:51:59.409Z,24.50
2017-06-21T18:57:00.033Z,24.20
2017-06-21T18:59:26.842Z,24.10
2017-06-21T19:01:54.857Z,24.00
2017-06-21T19:04:23.815Z,23.80
2017-06-21T19:06:50.126Z,23.70
2017-06-21T19:09:16.728Z,23.60
2017-06-21T19:11:46.064Z,23.40
2017-06-21T19:14:15.010Z,23.40
2017-06-21T19:16:42.953Z,23.30
2017-06-21T19:19:12.880Z,23.20
2017-06-21T19:21:41.386Z,23.10
2017-06-21T19:24:13.130Z,23.10
2017-06-21T19:26:40.923Z,23.00
2017-06-21T19:29:07.265Z,23.00
2017-06-21T19:31:35.676Z,22.90
2017-06-21T19:34:06.380Z,22.80
2017-06-21T19:36:34.408Z,22.80
2017-06-21T19:39:03.692Z,22.80
2017-06-21T19:41:32.684Z,22.70
2017-06-21T19:43:59.582Z,22.60
2017-06-21T19:46:28.817Z,22.50
2017-06-21T19:48:57.350Z,22.40
2017-06-21T19:51:25.965Z,22.30
2017-06-21T19:53:53.062Z,22.30
2017-06-21T19:56:20.512Z,22.40
2017-06-21T19:58:47.802Z,22.40
2017-06-21T20:01:15.001Z,22.40
2017-06-21T20:03:42.935Z,22.30
2017-06-21T20:06:10.101Z,22.40
2017-06-21T20:08:39.270Z,22.30
2017-06-21T20:11:10.007Z,22.30
2017-06-21T20:13:37.186Z,22.30
2017-06-21T20:16:04.462Z,22.20
2017-06-21T20:18:31.761Z,22.20
2017-06-21T20:21:00.712Z,22.10
2017-06-21T20:23:29.820Z,22.10
2017-06-21T20:26:05.506Z,22.00
2017-06-21T20:28:33.148Z,22.10
2017-06-21T20:31:00.420Z,22.00
2017-06-21T20:33:28.466Z,22.00
2017-06-21T20:35:58.075Z,22.00
2017-06-21T20:38:26.867Z,21.90
2017-06-21T20:40:56.307Z,21.90
2017-06-21T20:43:23.985Z,21.90
2017-06-21T20:45:52.307Z,21.90
2017-06-21T20:48:20.556Z,21.80
2017-06-21T20:50:46.850Z,21.80
2017-06-21T20:53:13.945Z,21.90
2017-06-21T20:55:43.764Z,22.00
2017-06-21T20:58:14.867Z,22.00
2017-06-21T21:00:42.484Z,22.00
2017-06-21T21:03:09.477Z,21.90
2017-06-21T21:05:37.716Z,21.90
2017-06-21T21:08:05.248Z,21.90
2017-06-21T21:10:34.210Z,22.00
2017-06-21T21:13:02.029Z,21.90
2017-06-21T21:15:28.739Z,21.80
2017-06-21T21:17:55.192Z,21.70
2017-06-21T21:20:22.812Z,21.70
2017-06-21T21:22:50.909Z,21.60
2017-06-21T21:25:17.868Z,21.60
2017-06-21T21:27:44.998Z,21.50
2017-06-21T21:30:12.275Z,21.50
2017-06-21T21:32:39.657Z,21.60
2017-06-21T21:35:08.045Z,21.60
2017-06-21T21:37:38.012Z,21.60
2017-06-21T21:40:05.223Z,21.60
2017-06-21T21:42:32.680Z,21.40
2017-06-21T21:45:01.158Z,21.60
2017-06-21T21:47:28.348Z,21.50
2017-06-21T21:49:56.620Z,21.50
2017-06-21T21:52:25.505Z,21.50
2017-06-21T21:54:51.931Z,21.40
2017-06-21T21:57:19.912Z,21.40
2017-06-21T21:59:48.843Z,21.40
2017-06-21T22:02:15.968Z,21.30
2017-06-21T22:04:43.424Z,21.40
2017-06-21T22:07:09.976Z,21.30
2017-06-21T22:09:38.346Z,21.30
2017-06-21T22:12:07.742Z,21.10
2017-06-21T22:14:35.247Z,21.10
2017-06-21T22:17:02.566Z,21.00
2017-06-21T22:19:30.616Z,21.00
2017-06-21T22:22:01.018Z,21.00
2017-06-21T22:24:29.740Z,21.00
2017-06-21T22:26:57.015Z,21.00
2017-06-21T22:29:24.105Z,21.00
2017-06-21T22:31:53.337Z,21.00
2017-06-21T22:34:22.498Z,21.00
2017-06-21T22:36:49.050Z,20.90
2017-06-21T22:39:32.306Z,20.90
2017-06-21T22:42:00.220Z,20.90
2017-06-21T22:44:29.392Z,20.90
2017-06-21T22:46:57.376Z,20.80
2017-06-21T22:49:26.146Z,20.80
2017-06-21T22:51:56.128Z,20.70
2017-06-21T22:54:25.808Z,20.70
2017-06-21T22:56:53.741Z,20.70
2017-06-21T22:59:20.009Z,20.70
2017-06-21T23:01:47.075Z,20.70
2017-06-21T23:04:15.112Z,20.70
2017-06-21T23:06:44.598Z,20.70
2017-06-21T23:09:11.948Z,20.60
2017-06-21T23:11:40.024Z,20.60
2017-06-21T23:14:10.168Z,20.60
2017-06-21T23:16:39.397Z,20.50
2017-06-21T23:19:05.667Z,20.50
2017-06-21T23:21:34.097Z,20.40
2017-06-21T23:24:02.429Z,20.40
2017-06-21T23:26:31.969Z,20.40
2017-06-21T23:28:59.103Z,20.40
2017-06-21T23:31:26.693Z,20.40
2017-06-21T23:33:54.833Z,20.30
2017-06-21T23:36:22.762Z,20.30
2017-06-21T23:38:51.627Z,20.20
2017-06-21T23:41:19.620Z,20.20
2017-06-21T23:43:48.753Z,20.20
2017-06-21T23:46:15.017Z,20.30
2017-06-21T23:48:43.810Z,20.30
2017-06-21T23:51:11.857Z,20.30
2017-06-21T23:53:39.781Z,20.20
2017-06-21T23:56:07.719Z,20.20
2017-06-21T23:58:36.774Z,20.10
